This is the latest recevied weather packets stored in our database for station/object IZ1UQG-1. If no packets are shown the sender has not sent any weather packets the latest 10 day(s).
| Time | Temp. | Humidity | Pressure | Rain* | Wind** | Luminosity | Snow |
|---|---|---|---|---|---|---|---|
| 1777950236 | 16.67° C | 54% | 1012.4 hPa | 164.08 mm | - | - | - |
| 1777949936 | 16.67° C | 54% | 1012.6 hPa | 205.99 mm | - | - | - |
| 1777949636 | 16.67° C | 54% | 1012.5 hPa | 199.9 mm | - | - | - |
| 1777949336 | 16.67° C | 54% | 1012.5 hPa | 202.44 mm | - | - | - |
| 1777949036 | 16.67° C | 54% | 1012.4 hPa | 116.33 mm | - | - | - |
| 1777948736 | 17.22° C | 54% | 1012.3 hPa | 116.33 mm | - | - | - |
| 1777948436 | 17.22° C | 54% | 1012.6 hPa | 208.53 mm | - | - | - |
| 1777948136 | 17.22° C | 54% | 1012.7 hPa | 199.39 mm | - | - | - |
| 1777947836 | 17.22° C | 53% | 1012.7 hPa | 207.52 mm | - | - | - |
| 1777947536 | 17.22° C | 53% | 1012.6 hPa | 97.28 mm | - | - | - |
| 1777947236 | 17.22° C | 53% | 1012.7 hPa | 195.07 mm | - | - | - |
| 1777946936 | 17.22° C | 53% | 1012.8 hPa | 198.88 mm | - | - | - |
| 1777946636 | 17.22° C | 53% | 1012.8 hPa | 155.19 mm | - | - | - |
| 1777946336 | 17.22° C | 52% | 1012.7 hPa | 57.91 mm | - | - | - |
| 1777946036 | 17.22° C | 52% | 1012.8 hPa | 198.88 mm | - | - | - |
| 1777945736 | 17.22° C | 52% | 1012.8 hPa | 183.64 mm | - | - | - |
| 1777945436 | 17.22° C | 52% | 1012.9 hPa | 139.19 mm | - | - | - |
| 1777945136 | 17.22° C | 52% | 1013 hPa | 76.45 mm | - | - | - |
| 1777944836 | 17.22° C | 52% | 1013.1 hPa | 139.19 mm | - | - | - |
| 1777944536 | 17.22° C | 52% | 1013 hPa | 104.39 mm | - | - | - |
| 1777944236 | 17.22° C | 52% | 1013.1 hPa | 76.45 mm | - | - | - |
| 1777943936 | 17.22° C | 52% | 1013.4 hPa | 234.19 mm | - | - | - |
| 1777943636 | 17.22° C | 52% | 1013.3 hPa | 89.41 mm | - | - | - |
| 1777943336 | 17.22° C | 52% | 1013.4 hPa | 112.78 mm | - | - | - |
| 1777943036 | 17.22° C | 52% | 1013.4 hPa | 60.45 mm | - | - | - |
* Rain latest hour (hover to see other rain measurements)
** Current wind speed in m/s (hover to see current wind gust speed)